sensor_id;sensor_type;location;lat;lon;timestamp;temperature;humidity
488;DHT22;16586;48.976;9.584;2022-07-29T00:01:53;21.80;53.60
488;DHT22;16586;48.976;9.584;2022-07-29T00:04:20;21.80;51.50
488;DHT22;16586;48.976;9.584;2022-07-29T00:06:47;22.00;51.90
488;DHT22;16586;48.976;9.584;2022-07-29T00:09:14;22.60;51.50
488;DHT22;16586;48.976;9.584;2022-07-29T00:11:41;21.90;50.90
488;DHT22;16586;48.976;9.584;2022-07-29T00:14:08;21.60;50.70
488;DHT22;16586;48.976;9.584;2022-07-29T00:16:35;21.70;52.40
488;DHT22;16586;48.976;9.584;2022-07-29T00:19:04;21.70;50.70
488;DHT22;16586;48.976;9.584;2022-07-29T00:21:31;21.80;53.30
488;DHT22;16586;48.976;9.584;2022-07-29T00:23:57;21.40;52.30
488;DHT22;16586;48.976;9.584;2022-07-29T00:26:24;21.90;53.20
488;DHT22;16586;48.976;9.584;2022-07-29T00:28:53;21.30;51.30
488;DHT22;16586;48.976;9.584;2022-07-29T00:31:20;21.30;51.80
488;DHT22;16586;48.976;9.584;2022-07-29T00:33:47;20.90;52.70
488;DHT22;16586;48.976;9.584;2022-07-29T00:36:15;21.40;54.60
488;DHT22;16586;48.976;9.584;2022-07-29T00:38:41;21.40;51.40
488;DHT22;16586;48.976;9.584;2022-07-29T00:41:10;21.20;53.60
488;DHT22;16586;48.976;9.584;2022-07-29T00:43:38;21.20;52.70
488;DHT22;16586;48.976;9.584;2022-07-29T00:46:05;21.20;52.70
488;DHT22;16586;48.976;9.584;2022-07-29T00:48:32;21.30;52.40
488;DHT22;16586;48.976;9.584;2022-07-29T00:51:00;21.30;53.40
488;DHT22;16586;48.976;9.584;2022-07-29T00:53:29;21.30;53.60
488;DHT22;16586;48.976;9.584;2022-07-29T00:55:57;20.50;51.80
488;DHT22;16586;48.976;9.584;2022-07-29T00:58:24;21.30;52.80
488;DHT22;16586;48.976;9.584;2022-07-29T01:00:52;21.40;53.50
488;DHT22;16586;48.976;9.584;2022-07-29T01:03:19;21.20;52.50
488;DHT22;16586;48.976;9.584;2022-07-29T01:05:46;21.30;54.60
488;DHT22;16586;48.976;9.584;2022-07-29T01:08:15;21.30;52.40
488;DHT22;16586;48.976;9.584;2022-07-29T01:10:44;21.20;51.90
488;DHT22;16586;48.976;9.584;2022-07-29T01:13:12;21.20;51.90
488;DHT22;16586;48.976;9.584;2022-07-29T01:15:44;21.20;52.80
488;DHT22;16586;48.976;9.584;2022-07-29T01:18:18;21.30;53.10
488;DHT22;16586;48.976;9.584;2022-07-29T01:21:02;21.10;53.10
488;DHT22;16586;48.976;9.584;2022-07-29T01:23:44;21.30;52.50
488;DHT22;16586;48.976;9.584;2022-07-29T01:26:34;21.10;52.50
488;DHT22;16586;48.976;9.584;2022-07-29T01:29:11;21.30;54.50
488;DHT22;16586;48.976;9.584;2022-07-29T01:31:43;20.90;52.10
488;DHT22;16586;48.976;9.584;2022-07-29T01:34:19;20.90;52.10
488;DHT22;16586;48.976;9.584;2022-07-29T01:36:50;20.70;53.40
488;DHT22;16586;48.976;9.584;2022-07-29T01:39:21;21.00;52.30
488;DHT22;16586;48.976;9.584;2022-07-29T01:41:56;20.90;51.90
488;DHT22;16586;48.976;9.584;2022-07-29T01:44:30;20.90;51.70
488;DHT22;16586;48.976;9.584;2022-07-29T01:47:02;21.10;52.30
488;DHT22;16586;48.976;9.584;2022-07-29T01:49:35;21.00;52.40
488;DHT22;16586;48.976;9.584;2022-07-29T01:52:07;20.70;53.00
488;DHT22;16586;48.976;9.584;2022-07-29T01:54:39;20.70;52.30
488;DHT22;16586;48.976;9.584;2022-07-29T01:57:09;20.50;54.10
488;DHT22;16586;48.976;9.584;2022-07-29T01:59:40;20.60;52.50
488;DHT22;16586;48.976;9.584;2022-07-29T02:02:09;20.50;56.40
488;DHT22;16586;48.976;9.584;2022-07-29T02:04:38;20.80;54.30
488;DHT22;16586;48.976;9.584;2022-07-29T02:07:12;20.60;54.90
488;DHT22;16586;48.976;9.584;2022-07-29T02:09:40;20.50;54.70
488;DHT22;16586;48.976;9.584;2022-07-29T02:12:08;20.90;55.90
488;DHT22;16586;48.976;9.584;2022-07-29T02:14:40;20.60;55.00
488;DHT22;16586;48.976;9.584;2022-07-29T02:17:07;20.70;54.70
488;DHT22;16586;48.976;9.584;2022-07-29T02:19:36;20.70;54.30
488;DHT22;16586;48.976;9.584;2022-07-29T02:22:04;20.50;53.70
488;DHT22;16586;48.976;9.584;2022-07-29T02:24:34;20.40;52.70
488;DHT22;16586;48.976;9.584;2022-07-29T02:27:03;20.40;52.80
488;DHT22;16586;48.976;9.584;2022-07-29T02:29:30;20.20;55.50
488;DHT22;16586;48.976;9.584;2022-07-29T02:32:01;20.50;54.50
488;DHT22;16586;48.976;9.584;2022-07-29T02:34:30;20.40;52.70
488;DHT22;16586;48.976;9.584;2022-07-29T02:36:57;20.30;54.60
488;DHT22;16586;48.976;9.584;2022-07-29T02:39:26;20.10;54.80
488;DHT22;16586;48.976;9.584;2022-07-29T02:41:57;20.30;53.30
488;DHT22;16586;48.976;9.584;2022-07-29T02:44:26;20.40;53.30
488;DHT22;16586;48.976;9.584;2022-07-29T02:47:06;20.50;55.50
488;DHT22;16586;48.976;9.584;2022-07-29T02:49:38;20.40;54.90
488;DHT22;16586;48.976;9.584;2022-07-29T02:52:15;20.30;54.70
488;DHT22;16586;48.976;9.584;2022-07-29T02:54:50;20.40;52.70
488;DHT22;16586;48.976;9.584;2022-07-29T02:57:21;20.50;52.80
488;DHT22;16586;48.976;9.584;2022-07-29T02:59:51;20.30;52.10
488;DHT22;16586;48.976;9.584;2022-07-29T03:02:20;20.20;52.30
488;DHT22;16586;48.976;9.584;2022-07-29T03:04:51;20.20;53.40
488;DHT22;16586;48.976;9.584;2022-07-29T03:07:20;20.10;52.80
488;DHT22;16586;48.976;9.584;2022-07-29T03:09:47;20.20;54.10
488;DHT22;16586;48.976;9.584;2022-07-29T03:12:16;20.20;54.50
488;DHT22;16586;48.976;9.584;2022-07-29T03:14:43;20.30;54.20
488;DHT22;16586;48.976;9.584;2022-07-29T03:17:12;20.10;53.30
488;DHT22;16586;48.976;9.584;2022-07-29T03:19:39;19.90;54.60
488;DHT22;16586;48.976;9.584;2022-07-29T03:22:08;20.00;53.50
488;DHT22;16586;48.976;9.584;2022-07-29T03:24:36;20.10;54.80
488;DHT22;16586;48.976;9.584;2022-07-29T03:27:04;20.20;53.90
488;DHT22;16586;48.976;9.584;2022-07-29T03:29:32;20.00;52.50
488;DHT22;16586;48.976;9.584;2022-07-29T03:31:59;20.10;53.10
488;DHT22;16586;48.976;9.584;2022-07-29T03:34:27;19.00;52.30
488;DHT22;16586;48.976;9.584;2022-07-29T03:36:54;19.70;54.00
488;DHT22;16586;48.976;9.584;2022-07-29T03:39:25;19.90;54.50
488;DHT22;16586;48.976;9.584;2022-07-29T03:41:55;19.80;53.80
488;DHT22;16586;48.976;9.584;2022-07-29T03:44:26;19.70;54.10
488;DHT22;16586;48.976;9.584;2022-07-29T03:46:56;19.80;53.50
488;DHT22;16586;48.976;9.584;2022-07-29T03:49:24;19.90;53.70
488;DHT22;16586;48.976;9.584;2022-07-29T03:51:53;20.10;53.10
488;DHT22;16586;48.976;9.584;2022-07-29T03:54:20;20.30;54.00
488;DHT22;16586;48.976;9.584;2022-07-29T03:56:49;19.90;53.60
488;DHT22;16586;48.976;9.584;2022-07-29T03:59:17;19.80;53.80
488;DHT22;16586;48.976;9.584;2022-07-29T04:01:46;19.80;53.40
488;DHT22;16586;48.976;9.584;2022-07-29T04:04:13;19.80;53.10
488;DHT22;16586;48.976;9.584;2022-07-29T04:06:42;19.80;54.40
488;DHT22;16586;48.976;9.584;2022-07-29T04:09:10;19.80;53.20
488;DHT22;16586;48.976;9.584;2022-07-29T04:11:38;19.70;53.00
488;DHT22;16586;48.976;9.584;2022-07-29T04:14:07;19.60;53.20
488;DHT22;16586;48.976;9.584;2022-07-29T04:16:34;19.50;53.40
488;DHT22;16586;48.976;9.584;2022-07-29T04:19:01;19.60;54.80
488;DHT22;16586;48.976;9.584;2022-07-29T04:21:28;19.60;53.80
488;DHT22;16586;48.976;9.584;2022-07-29T04:23:55;19.60;53.90
488;DHT22;16586;48.976;9.584;2022-07-29T04:26:21;19.60;54.20
488;DHT22;16586;48.976;9.584;2022-07-29T04:28:48;19.60;54.60
488;DHT22;16586;48.976;9.584;2022-07-29T04:31:17;19.70;54.40
488;DHT22;16586;48.976;9.584;2022-07-29T04:33:43;19.90;54.80
488;DHT22;16586;48.976;9.584;2022-07-29T04:36:10;19.20;55.20
488;DHT22;16586;48.976;9.584;2022-07-29T04:38:42;19.80;53.80
488;DHT22;16586;48.976;9.584;2022-07-29T04:41:09;19.80;54.20
488;DHT22;16586;48.976;9.584;2022-07-29T04:43:36;19.80;54.10
488;DHT22;16586;48.976;9.584;2022-07-29T04:46:06;19.80;56.00
488;DHT22;16586;48.976;9.584;2022-07-29T04:48:34;19.80;55.00
488;DHT22;16586;48.976;9.584;2022-07-29T04:51:01;19.70;54.80
488;DHT22;16586;48.976;9.584;2022-07-29T04:53:28;19.80;54.30
488;DHT22;16586;48.976;9.584;2022-07-29T04:55:55;19.90;55.70
488;DHT22;16586;48.976;9.584;2022-07-29T04:58:22;20.00;57.10
488;DHT22;16586;48.976;9.584;2022-07-29T05:00:49;20.00;54.30
488;DHT22;16586;48.976;9.584;2022-07-29T05:03:16;19.90;54.40
488;DHT22;16586;48.976;9.584;2022-07-29T05:05:45;19.90;54.50
488;DHT22;16586;48.976;9.584;2022-07-29T05:08:12;20.60;55.10
488;DHT22;16586;48.976;9.584;2022-07-29T05:10:38;20.00;57.40
488;DHT22;16586;48.976;9.584;2022-07-29T05:13:06;20.00;56.90
488;DHT22;16586;48.976;9.584;2022-07-29T05:15:33;20.10;55.90
488;DHT22;16586;48.976;9.584;2022-07-29T05:18:01;20.30;56.20
488;DHT22;16586;48.976;9.584;2022-07-29T05:20:28;20.10;56.50
488;DHT22;16586;48.976;9.584;2022-07-29T05:22:57;20.40;56.20
488;DHT22;16586;48.976;9.584;2022-07-29T05:25:24;20.20;56.00
488;DHT22;16586;48.976;9.584;2022-07-29T05:27:52;20.30;55.70
488;DHT22;16586;48.976;9.584;2022-07-29T05:30:19;20.40;56.20
488;DHT22;16586;48.976;9.584;2022-07-29T05:32:46;20.30;55.60
488;DHT22;16586;48.976;9.584;2022-07-29T05:35:14;20.40;56.10
488;DHT22;16586;48.976;9.584;2022-07-29T05:37:41;20.40;54.40
488;DHT22;16586;48.976;9.584;2022-07-29T05:40:10;20.50;54.60
488;DHT22;16586;48.976;9.584;2022-07-29T05:45:05;20.60;54.40
488;DHT22;16586;48.976;9.584;2022-07-29T05:47:32;20.90;55.80
488;DHT22;16586;48.976;9.584;2022-07-29T05:49:59;20.60;54.70
488;DHT22;16586;48.976;9.584;2022-07-29T05:52:26;20.80;56.80
488;DHT22;16586;48.976;9.584;2022-07-29T05:54:53;20.70;56.40
488;DHT22;16586;48.976;9.584;2022-07-29T05:57:23;20.70;54.60
488;DHT22;16586;48.976;9.584;2022-07-29T05:59:51;20.90;55.50
488;DHT22;16586;48.976;9.584;2022-07-29T06:02:18;21.30;56.40
488;DHT22;16586;48.976;9.584;2022-07-29T06:04:45;21.00;54.80
488;DHT22;16586;48.976;9.584;2022-07-29T06:07:12;21.20;56.70
488;DHT22;16586;48.976;9.584;2022-07-29T06:09:39;21.10;54.80
488;DHT22;16586;48.976;9.584;2022-07-29T06:12:06;21.10;54.90
488;DHT22;16586;48.976;9.584;2022-07-29T06:14:34;21.30;55.30
488;DHT22;16586;48.976;9.584;2022-07-29T06:17:03;21.50;56.30
488;DHT22;16586;48.976;9.584;2022-07-29T06:19:31;21.50;55.40
488;DHT22;16586;48.976;9.584;2022-07-29T06:22:00;21.60;54.60
488;DHT22;16586;48.976;9.584;2022-07-29T06:24:27;21.70;54.70
488;DHT22;16586;48.976;9.584;2022-07-29T06:26:54;21.60;55.10
488;DHT22;16586;48.976;9.584;2022-07-29T06:29:21;21.80;54.70
488;DHT22;16586;48.976;9.584;2022-07-29T06:31:49;21.80;54.30
488;DHT22;16586;48.976;9.584;2022-07-29T06:34:16;21.90;56.60
488;DHT22;16586;48.976;9.584;2022-07-29T06:36:43;22.00;55.40
488;DHT22;16586;48.976;9.584;2022-07-29T06:39:10;22.00;55.40
488;DHT22;16586;48.976;9.584;2022-07-29T06:41:37;22.10;54.80
488;DHT22;16586;48.976;9.584;2022-07-29T06:44:04;22.10;54.70
488;DHT22;16586;48.976;9.584;2022-07-29T06:46:31;22.20;54.40
488;DHT22;16586;48.976;9.584;2022-07-29T06:48:59;22.40;54.90
488;DHT22;16586;48.976;9.584;2022-07-29T06:51:27;22.50;55.50
488;DHT22;16586;48.976;9.584;2022-07-29T06:53:54;22.50;52.60
488;DHT22;16586;48.976;9.584;2022-07-29T06:56:23;22.60;56.20
488;DHT22;16586;48.976;9.584;2022-07-29T06:58:50;22.60;53.30
488;DHT22;16586;48.976;9.584;2022-07-29T07:01:17;22.70;52.60
488;DHT22;16586;48.976;9.584;2022-07-29T07:03:45;22.70;52.50
488;DHT22;16586;48.976;9.584;2022-07-29T07:06:13;22.80;53.80
488;DHT22;16586;48.976;9.584;2022-07-29T07:08:40;22.80;53.20
488;DHT22;16586;48.976;9.584;2022-07-29T07:11:07;22.70;52.90
488;DHT22;16586;48.976;9.584;2022-07-29T07:13:34;22.90;53.70
488;DHT22;16586;48.976;9.584;2022-07-29T07:16:02;23.00;53.20
488;DHT22;16586;48.976;9.584;2022-07-29T07:18:29;23.00;53.80
488;DHT22;16586;48.976;9.584;2022-07-29T07:20:56;23.10;54.10
488;DHT22;16586;48.976;9.584;2022-07-29T07:23:25;23.10;53.00
488;DHT22;16586;48.976;9.584;2022-07-29T07:25:52;23.30;51.40
488;DHT22;16586;48.976;9.584;2022-07-29T07:28:19;23.30;51.00
488;DHT22;16586;48.976;9.584;2022-07-29T07:30:46;23.40;51.80
488;DHT22;16586;48.976;9.584;2022-07-29T07:33:13;23.50;50.00
488;DHT22;16586;48.976;9.584;2022-07-29T07:35:40;23.50;50.90
488;DHT22;16586;48.976;9.584;2022-07-29T07:38:07;24.40;50.50
488;DHT22;16586;48.976;9.584;2022-07-29T07:40:35;23.70;50.00
488;DHT22;16586;48.976;9.584;2022-07-29T07:43:02;23.70;50.80
488;DHT22;16586;48.976;9.584;2022-07-29T07:45:29;23.90;51.30
488;DHT22;16586;48.976;9.584;2022-07-29T07:47:58;24.00;49.80
488;DHT22;16586;48.976;9.584;2022-07-29T07:50:25;24.20;49.20
488;DHT22;16586;48.976;9.584;2022-07-29T07:52:53;24.00;47.70
488;DHT22;16586;48.976;9.584;2022-07-29T07:55:23;24.10;48.10
488;DHT22;16586;48.976;9.584;2022-07-29T07:57:51;23.40;46.80
488;DHT22;16586;48.976;9.584;2022-07-29T08:00:18;24.20;46.00
488;DHT22;16586;48.976;9.584;2022-07-29T08:02:45;24.40;47.40
488;DHT22;16586;48.976;9.584;2022-07-29T08:05:13;24.40;46.20
488;DHT22;16586;48.976;9.584;2022-07-29T08:07:42;24.50;48.10
488;DHT22;16586;48.976;9.584;2022-07-29T08:10:10;24.60;47.60
488;DHT22;16586;48.976;9.584;2022-07-29T08:12:39;24.90;49.30
488;DHT22;16586;48.976;9.584;2022-07-29T08:17:35;24.50;46.70
488;DHT22;16586;48.976;9.584;2022-07-29T08:20:03;24.70;46.70
488;DHT22;16586;48.976;9.584;2022-07-29T08:22:30;24.90;44.60
488;DHT22;16586;48.976;9.584;2022-07-29T08:24:57;24.90;44.40
488;DHT22;16586;48.976;9.584;2022-07-29T08:27:24;25.00;45.90
488;DHT22;16586;48.976;9.584;2022-07-29T08:29:52;25.10;44.80
488;DHT22;16586;48.976;9.584;2022-07-29T08:32:20;25.10;43.20
488;DHT22;16586;48.976;9.584;2022-07-29T08:34:47;25.10;43.10
488;DHT22;16586;48.976;9.584;2022-07-29T08:37:14;25.10;43.10
488;DHT22;16586;48.976;9.584;2022-07-29T08:39:40;25.10;44.70
488;DHT22;16586;48.976;9.584;2022-07-29T08:42:07;25.20;43.20
488;DHT22;16586;48.976;9.584;2022-07-29T08:44:35;25.20;44.40
488;DHT22;16586;48.976;9.584;2022-07-29T08:47:03;25.20;44.70
488;DHT22;16586;48.976;9.584;2022-07-29T08:49:33;25.20;42.60
488;DHT22;16586;48.976;9.584;2022-07-29T08:52:00;25.30;43.50
488;DHT22;16586;48.976;9.584;2022-07-29T08:54:28;25.00;43.90
488;DHT22;16586;48.976;9.584;2022-07-29T08:56:56;24.90;44.40
488;DHT22;16586;48.976;9.584;2022-07-29T08:59:25;24.80;43.50
488;DHT22;16586;48.976;9.584;2022-07-29T09:01:54;24.80;44.00
488;DHT22;16586;48.976;9.584;2022-07-29T09:04:26;24.80;44.10
488;DHT22;16586;48.976;9.584;2022-07-29T09:06:57;25.00;44.10
488;DHT22;16586;48.976;9.584;2022-07-29T09:09:27;25.20;44.60
488;DHT22;16586;48.976;9.584;2022-07-29T09:11:54;25.30;44.20
488;DHT22;16586;48.976;9.584;2022-07-29T09:14:21;25.40;43.80
488;DHT22;16586;48.976;9.584;2022-07-29T09:16:51;25.10;42.60
488;DHT22;16586;48.976;9.584;2022-07-29T09:19:23;25.90;44.00
488;DHT22;16586;48.976;9.584;2022-07-29T09:21:51;25.70;43.40
488;DHT22;16586;48.976;9.584;2022-07-29T09:24:42;25.70;42.20
488;DHT22;16586;48.976;9.584;2022-07-29T09:27:20;25.90;43.00
488;DHT22;16586;48.976;9.584;2022-07-29T09:29:55;25.90;42.20
488;DHT22;16586;48.976;9.584;2022-07-29T09:32:23;26.20;42.80
488;DHT22;16586;48.976;9.584;2022-07-29T09:34:52;26.20;42.00
488;DHT22;16586;48.976;9.584;2022-07-29T09:37:38;26.30;41.50
488;DHT22;16586;48.976;9.584;2022-07-29T09:40:13;26.00;40.80
488;DHT22;16586;48.976;9.584;2022-07-29T09:42:41;26.00;42.10
488;DHT22;16586;48.976;9.584;2022-07-29T09:45:08;26.10;40.90
488;DHT22;16586;48.976;9.584;2022-07-29T09:47:44;26.20;40.80
488;DHT22;16586;48.976;9.584;2022-07-29T09:50:15;26.30;40.60
488;DHT22;16586;48.976;9.584;2022-07-29T09:52:46;26.30;40.60
488;DHT22;16586;48.976;9.584;2022-07-29T09:55:15;26.40;40.70
488;DHT22;16586;48.976;9.584;2022-07-29T09:57:42;26.50;39.50
488;DHT22;16586;48.976;9.584;2022-07-29T10:00:12;26.50;39.10
488;DHT22;16586;48.976;9.584;2022-07-29T10:02:41;26.80;38.40
488;DHT22;16586;48.976;9.584;2022-07-29T10:05:18;26.90;38.60
488;DHT22;16586;48.976;9.584;2022-07-29T10:07:47;27.30;39.30
488;DHT22;16586;48.976;9.584;2022-07-29T10:10:21;26.90;37.00
488;DHT22;16586;48.976;9.584;2022-07-29T10:12:50;27.00;38.10
488;DHT22;16586;48.976;9.584;2022-07-29T10:15:18;26.60;38.20
488;DHT22;16586;48.976;9.584;2022-07-29T10:17:47;27.10;37.60
488;DHT22;16586;48.976;9.584;2022-07-29T10:20:15;27.10;36.60
488;DHT22;16586;48.976;9.584;2022-07-29T10:22:42;27.40;37.60
488;DHT22;16586;48.976;9.584;2022-07-29T10:25:10;27.20;37.80
488;DHT22;16586;48.976;9.584;2022-07-29T10:27:39;27.20;37.10
488;DHT22;16586;48.976;9.584;2022-07-29T10:30:07;27.30;35.40
488;DHT22;16586;48.976;9.584;2022-07-29T10:32:53;27.40;36.50
488;DHT22;16586;48.976;9.584;2022-07-29T10:35:31;27.60;35.70
488;DHT22;16586;48.976;9.584;2022-07-29T10:38:23;27.70;36.30
488;DHT22;16586;48.976;9.584;2022-07-29T10:41:00;27.80;35.50
488;DHT22;16586;48.976;9.584;2022-07-29T10:43:52;27.90;34.80
488;DHT22;16586;48.976;9.584;2022-07-29T10:46:20;28.10;34.10
488;DHT22;16586;48.976;9.584;2022-07-29T10:49:08;28.10;34.40
488;DHT22;16586;48.976;9.584;2022-07-29T10:51:57;28.40;34.70
488;DHT22;16586;48.976;9.584;2022-07-29T10:54:42;28.00;33.20
488;DHT22;16586;48.976;9.584;2022-07-29T10:57:14;28.20;34.80
488;DHT22;16586;48.976;9.584;2022-07-29T10:59:44;28.20;34.30
488;DHT22;16586;48.976;9.584;2022-07-29T11:02:44;27.90;35.00
488;DHT22;16586;48.976;9.584;2022-07-29T11:05:14;28.20;34.50
488;DHT22;16586;48.976;9.584;2022-07-29T11:08:17;27.90;34.10
488;DHT22;16586;48.976;9.584;2022-07-29T11:10:47;27.90;34.30
488;DHT22;16586;48.976;9.584;2022-07-29T11:13:50;27.80;34.30
488;DHT22;16586;48.976;9.584;2022-07-29T11:16:20;27.90;33.20
488;DHT22;16586;48.976;9.584;2022-07-29T11:19:19;27.70;33.10
488;DHT22;16586;48.976;9.584;2022-07-29T11:21:47;27.50;34.10
488;DHT22;16586;48.976;9.584;2022-07-29T11:24:16;27.60;34.40
488;DHT22;16586;48.976;9.584;2022-07-29T11:26:44;27.50;33.60
488;DHT22;16586;48.976;9.584;2022-07-29T11:29:19;27.50;34.70
488;DHT22;16586;48.976;9.584;2022-07-29T11:31:50;27.70;36.00
488;DHT22;16586;48.976;9.584;2022-07-29T11:34:24;27.30;35.10
488;DHT22;16586;48.976;9.584;2022-07-29T11:37:15;27.30;35.10
488;DHT22;16586;48.976;9.584;2022-07-29T11:39:44;27.20;35.10
488;DHT22;16586;48.976;9.584;2022-07-29T11:42:36;27.30;36.50
488;DHT22;16586;48.976;9.584;2022-07-29T11:45:05;27.50;36.10
488;DHT22;16586;48.976;9.584;2022-07-29T11:47:35;27.10;35.50
488;DHT22;16586;48.976;9.584;2022-07-29T11:50:04;27.10;36.40
488;DHT22;16586;48.976;9.584;2022-07-29T11:52:33;27.00;35.40
488;DHT22;16586;48.976;9.584;2022-07-29T11:55:05;26.90;34.60
488;DHT22;16586;48.976;9.584;2022-07-29T11:57:34;27.40;36.30
488;DHT22;16586;48.976;9.584;2022-07-29T12:00:02;27.00;36.20
488;DHT22;16586;48.976;9.584;2022-07-29T12:02:40;26.70;34.50
488;DHT22;16586;48.976;9.584;2022-07-29T12:05:08;26.90;36.30
488;DHT22;16586;48.976;9.584;2022-07-29T12:07:36;26.70;34.80
488;DHT22;16586;48.976;9.584;2022-07-29T12:10:04;26.80;36.40
488;DHT22;16586;48.976;9.584;2022-07-29T12:12:32;26.90;36.80
488;DHT22;16586;48.976;9.584;2022-07-29T12:15:14;26.80;36.40
488;DHT22;16586;48.976;9.584;2022-07-29T12:17:44;27.20;35.20
488;DHT22;16586;48.976;9.584;2022-07-29T12:20:10;27.20;36.90
488;DHT22;16586;48.976;9.584;2022-07-29T12:22:40;27.60;36.00
488;DHT22;16586;48.976;9.584;2022-07-29T12:25:10;27.30;35.20
488;DHT22;16586;48.976;9.584;2022-07-29T12:27:40;27.50;34.40
488;DHT22;16586;48.976;9.584;2022-07-29T12:30:10;27.70;34.60
488;DHT22;16586;48.976;9.584;2022-07-29T12:32:40;27.60;35.20
488;DHT22;16586;48.976;9.584;2022-07-29T12:35:10;27.70;32.90
488;DHT22;16586;48.976;9.584;2022-07-29T12:37:40;27.80;33.10
488;DHT22;16586;48.976;9.584;2022-07-29T12:40:08;27.80;33.40
488;DHT22;16586;48.976;9.584;2022-07-29T12:42:36;27.80;33.60
488;DHT22;16586;48.976;9.584;2022-07-29T12:45:04;27.80;33.80
488;DHT22;16586;48.976;9.584;2022-07-29T12:47:31;28.00;34.20
488;DHT22;16586;48.976;9.584;2022-07-29T12:50:11;27.90;33.80
488;DHT22;16586;48.976;9.584;2022-07-29T12:52:40;28.00;34.30
488;DHT22;16586;48.976;9.584;2022-07-29T12:55:07;28.00;34.70
488;DHT22;16586;48.976;9.584;2022-07-29T12:57:44;28.10;31.20
488;DHT22;16586;48.976;9.584;2022-07-29T13:00:13;28.30;32.50
488;DHT22;16586;48.976;9.584;2022-07-29T13:02:41;28.50;29.60
488;DHT22;16586;48.976;9.584;2022-07-29T13:05:11;29.00;28.80
488;DHT22;16586;48.976;9.584;2022-07-29T13:07:38;29.40;28.60
488;DHT22;16586;48.976;9.584;2022-07-29T13:10:16;29.60;26.40
488;DHT22;16586;48.976;9.584;2022-07-29T13:13:03;29.90;26.00
488;DHT22;16586;48.976;9.584;2022-07-29T13:15:30;30.50;27.30
488;DHT22;16586;48.976;9.584;2022-07-29T13:17:57;30.20;27.50
488;DHT22;16586;48.976;9.584;2022-07-29T13:20:27;30.40;26.90
488;DHT22;16586;48.976;9.584;2022-07-29T13:22:55;30.50;27.00
488;DHT22;16586;48.976;9.584;2022-07-29T13:25:27;30.50;27.60
488;DHT22;16586;48.976;9.584;2022-07-29T13:27:54;31.40;27.70
488;DHT22;16586;48.976;9.584;2022-07-29T13:30:22;30.50;26.00
488;DHT22;16586;48.976;9.584;2022-07-29T13:32:50;30.30;27.00
488;DHT22;16586;48.976;9.584;2022-07-29T13:35:18;30.00;27.40
488;DHT22;16586;48.976;9.584;2022-07-29T13:37:47;30.00;27.50
488;DHT22;16586;48.976;9.584;2022-07-29T13:40:14;30.10;27.10
488;DHT22;16586;48.976;9.584;2022-07-29T13:42:41;29.40;25.90
488;DHT22;16586;48.976;9.584;2022-07-29T13:45:09;30.10;26.60
488;DHT22;16586;48.976;9.584;2022-07-29T13:47:37;30.10;26.70
488;DHT22;16586;48.976;9.584;2022-07-29T13:50:05;30.20;26.00
488;DHT22;16586;48.976;9.584;2022-07-29T13:52:33;30.20;25.10
488;DHT22;16586;48.976;9.584;2022-07-29T13:55:02;30.00;27.00
488;DHT22;16586;48.976;9.584;2022-07-29T13:57:29;29.70;26.20
488;DHT22;16586;48.976;9.584;2022-07-29T13:59:57;29.30;27.80
488;DHT22;16586;48.976;9.584;2022-07-29T14:02:24;29.00;27.40
488;DHT22;16586;48.976;9.584;2022-07-29T14:04:51;28.70;28.10
488;DHT22;16586;48.976;9.584;2022-07-29T14:07:18;28.60;29.60
488;DHT22;16586;48.976;9.584;2022-07-29T14:09:45;28.20;29.00
488;DHT22;16586;48.976;9.584;2022-07-29T14:12:14;28.10;30.70
488;DHT22;16586;48.976;9.584;2022-07-29T14:14:40;28.00;29.20
488;DHT22;16586;48.976;9.584;2022-07-29T14:17:07;27.90;30.70
488;DHT22;16586;48.976;9.584;2022-07-29T14:19:35;27.80;30.50
488;DHT22;16586;48.976;9.584;2022-07-29T14:22:04;27.70;30.00
488;DHT22;16586;48.976;9.584;2022-07-29T14:24:31;27.50;30.00
488;DHT22;16586;48.976;9.584;2022-07-29T14:26:59;27.50;30.80
488;DHT22;16586;48.976;9.584;2022-07-29T14:29:27;27.30;29.20
488;DHT22;16586;48.976;9.584;2022-07-29T14:31:54;27.60;31.40
488;DHT22;16586;48.976;9.584;2022-07-29T14:34:21;27.60;30.00
488;DHT22;16586;48.976;9.584;2022-07-29T14:36:47;27.70;32.30
488;DHT22;16586;48.976;9.584;2022-07-29T14:39:14;27.70;31.80
488;DHT22;16586;48.976;9.584;2022-07-29T14:41:42;27.50;30.00
488;DHT22;16586;48.976;9.584;2022-07-29T14:44:09;27.60;32.20
488;DHT22;16586;48.976;9.584;2022-07-29T14:46:37;27.40;30.60
488;DHT22;16586;48.976;9.584;2022-07-29T14:49:04;28.00;31.30
488;DHT22;16586;48.976;9.584;2022-07-29T14:51:32;27.20;31.10
488;DHT22;16586;48.976;9.584;2022-07-29T14:53:59;27.30;32.70
488;DHT22;16586;48.976;9.584;2022-07-29T14:56:26;27.20;33.70
488;DHT22;16586;48.976;9.584;2022-07-29T14:58:55;27.10;32.20
488;DHT22;16586;48.976;9.584;2022-07-29T15:01:22;27.10;31.70
488;DHT22;16586;48.976;9.584;2022-07-29T15:03:51;27.10;33.20
488;DHT22;16586;48.976;9.584;2022-07-29T15:06:18;27.10;32.00
488;DHT22;16586;48.976;9.584;2022-07-29T15:08:45;27.10;32.90
488;DHT22;16586;48.976;9.584;2022-07-29T15:11:12;27.10;33.30
488;DHT22;16586;48.976;9.584;2022-07-29T15:16:06;27.00;32.00
488;DHT22;16586;48.976;9.584;2022-07-29T15:18:33;26.80;32.30
488;DHT22;16586;48.976;9.584;2022-07-29T15:21:01;27.10;32.70
488;DHT22;16586;48.976;9.584;2022-07-29T15:23:28;26.70;32.50
488;DHT22;16586;48.976;9.584;2022-07-29T15:28:22;26.80;32.50
488;DHT22;16586;48.976;9.584;2022-07-29T15:30:49;26.90;34.10
488;DHT22;16586;48.976;9.584;2022-07-29T15:33:16;26.90;32.30
488;DHT22;16586;48.976;9.584;2022-07-29T15:35:43;27.20;34.30
488;DHT22;16586;48.976;9.584;2022-07-29T15:38:11;27.00;31.60
488;DHT22;16586;48.976;9.584;2022-07-29T15:40:39;27.10;34.20
488;DHT22;16586;48.976;9.584;2022-07-29T15:43:08;27.10;33.20
488;DHT22;16586;48.976;9.584;2022-07-29T15:45:36;27.00;33.80
488;DHT22;16586;48.976;9.584;2022-07-29T15:48:05;26.90;33.00
488;DHT22;16586;48.976;9.584;2022-07-29T15:50:33;27.00;33.10
488;DHT22;16586;48.976;9.584;2022-07-29T15:53:00;27.00;33.00
488;DHT22;16586;48.976;9.584;2022-07-29T15:55:28;26.90;32.40
488;DHT22;16586;48.976;9.584;2022-07-29T15:57:55;27.00;35.00
488;DHT22;16586;48.976;9.584;2022-07-29T16:00:22;27.00;34.50
488;DHT22;16586;48.976;9.584;2022-07-29T16:05:17;26.90;32.20
488;DHT22;16586;48.976;9.584;2022-07-29T16:07:44;27.00;32.60
488;DHT22;16586;48.976;9.584;2022-07-29T16:10:10;27.10;34.40
488;DHT22;16586;48.976;9.584;2022-07-29T16:12:39;27.00;33.90
488;DHT22;16586;48.976;9.584;2022-07-29T16:15:07;26.70;32.00
488;DHT22;16586;48.976;9.584;2022-07-29T16:17:35;27.00;32.40
488;DHT22;16586;48.976;9.584;2022-07-29T16:20:03;27.20;33.30
488;DHT22;16586;48.976;9.584;2022-07-29T16:22:30;27.10;32.60
488;DHT22;16586;48.976;9.584;2022-07-29T16:24:57;27.10;33.60
488;DHT22;16586;48.976;9.584;2022-07-29T16:27:24;27.10;32.40
488;DHT22;16586;48.976;9.584;2022-07-29T16:29:54;27.10;33.70